Time;durP1;ratioP1;P1;durP2;ratioP2;P2;SDS_P1;SDS_P2;PMS_P1;PMS_P2;Temp;Humidity;BMP_temperature;BMP_pressure;BME280_temperature;BME280_humidity;BME280_pressure;Samples;Min_cycle;Max_cycle;Signal;HPM_P1;HPM_P2
2021/11/09 00:00:08;;;;;;;26.27;14.05;;;;;;;;;;5038119;28;20046;-86
2021/11/09 00:02:35;;;;;;;29.13;13.63;;;;;;;;;;5037726;28;20046;-86
2021/11/09 00:05:05;;;;;;;32.13;13.15;;;;;;;;;;5036409;28;20048;-85
2021/11/09 00:07:37;;;;;;;30.98;14.05;;;;;;;;;;5036465;28;20050;-86
2021/11/09 00:10:08;;;;;;;29.48;13.75;;;;;;;;;;5037187;28;20558;-87
2021/11/09 00:12:38;;;;;;;28.90;14.25;;;;;;;;;;5037905;28;20049;-88
2021/11/09 00:15:08;;;;;;;28.02;13.95;;;;;;;;;;5037638;28;20099;-87
2021/11/09 00:17:35;;;;;;;27.63;13.60;;;;;;;;;;5051220;28;20053;-87
2021/11/09 00:20:04;;;;;;;27.38;14.60;;;;;;;;;;5060146;28;20089;-87
2021/11/09 00:22:31;;;;;;;27.40;14.55;;;;;;;;;;5060244;28;20049;-87
2021/11/09 00:24:58;;;;;;;30.38;15.00;;;;;;;;;;5060100;28;20049;-87
2021/11/09 00:27:39;;;;;;;29.25;14.07;;;;;;;;;;5050083;28;20053;-87
2021/11/09 00:30:10;;;;;;;25.38;14.10;;;;;;;;;;5036367;28;20435;-87
2021/11/09 00:32:38;;;;;;;24.23;13.25;;;;;;;;;;5036444;28;20061;-87
2021/11/09 00:35:08;;;;;;;27.63;14.35;;;;;;;;;;5068548;23;20064;-80
2021/11/09 00:37:35;;;;;;;31.42;13.85;;;;;;;;;;5094181;28;20055;-82
2021/11/09 00:40:01;;;;;;;28.15;15.20;;;;;;;;;;5092712;28;20517;-82
2021/11/09 00:42:28;;;;;;;40.22;15.00;;;;;;;;;;5091137;28;20049;-83
2021/11/09 00:44:56;;;;;;;31.85;15.02;;;;;;;;;;5089521;28;20052;-82
2021/11/09 00:47:24;;;;;;;29.63;13.57;;;;;;;;;;5086393;28;20150;-83
2021/11/09 00:49:51;;;;;;;25.98;12.95;;;;;;;;;;5094216;28;20058;-82
2021/11/09 00:52:19;;;;;;;31.13;15.30;;;;;;;;;;5092265;28;20041;-82
2021/11/09 00:54:49;;;;;;;30.83;15.80;;;;;;;;;;5087917;28;20045;-83
2021/11/09 00:57:17;;;;;;;30.40;15.13;;;;;;;;;;5079452;28;20151;-85
2021/11/09 00:59:44;;;;;;;33.85;15.25;;;;;;;;;;5079984;28;20056;-83
2021/11/09 01:02:11;;;;;;;31.42;15.65;;;;;;;;;;5081273;28;20056;-83
2021/11/09 01:04:40;;;;;;;28.17;14.63;;;;;;;;;;5080308;28;20419;-83
2021/11/09 01:07:07;;;;;;;28.33;14.02;;;;;;;;;;5080788;28;20049;-83
2021/11/09 01:09:37;;;;;;;31.02;14.07;;;;;;;;;;5081373;28;20044;-83
2021/11/09 01:12:05;;;;;;;29.35;14.32;;;;;;;;;;5082542;28;20046;-83
2021/11/09 01:14:32;;;;;;;27.45;14.13;;;;;;;;;;5081748;28;20048;-83
2021/11/09 01:16:59;;;;;;;32.25;15.20;;;;;;;;;;5080741;28;20411;-83
2021/11/09 01:19:32;;;;;;;26.83;13.93;;;;;;;;;;5080316;28;20048;-83
2021/11/09 01:22:01;;;;;;;26.77;14.45;;;;;;;;;;5081172;28;20410;-83
2021/11/09 01:24:28;;;;;;;24.08;13.02;;;;;;;;;;5080956;28;20128;-83
2021/11/09 01:26:55;;;;;;;29.33;14.25;;;;;;;;;;5081095;28;20045;-83
2021/11/09 01:29:23;;;;;;;28.27;14.75;;;;;;;;;;5081412;28;20059;-83
2021/11/09 01:31:52;;;;;;;30.52;14.88;;;;;;;;;;5084592;28;20447;-83
2021/11/09 01:34:20;;;;;;;30.38;14.48;;;;;;;;;;5086464;28;20041;-83
2021/11/09 01:36:47;;;;;;;26.38;13.38;;;;;;;;;;5081839;28;20052;-83
2021/11/09 01:39:16;;;;;;;31.13;15.45;;;;;;;;;;5081514;28;20049;-83
2021/11/09 01:41:43;;;;;;;27.52;13.85;;;;;;;;;;5082248;28;20131;-84
2021/11/09 01:44:11;;;;;;;23.60;12.60;;;;;;;;;;5082860;28;20045;-83
2021/11/09 01:46:38;;;;;;;35.50;15.13;;;;;;;;;;5082942;28;20473;-84
2021/11/09 01:49:07;;;;;;;30.23;13.65;;;;;;;;;;5083171;28;20044;-83
2021/11/09 01:51:34;;;;;;;28.17;13.52;;;;;;;;;;5081835;28;20110;-83
2021/11/09 01:54:02;;;;;;;31.27;13.68;;;;;;;;;;5081507;28;20044;-82
2021/11/09 01:56:31;;;;;;;28.20;13.73;;;;;;;;;;5084738;28;20059;-83
2021/11/09 01:59:00;;;;;;;28.25;13.70;;;;;;;;;;5082423;28;20049;-83
2021/11/09 02:01:29;;;;;;;22.67;14.18;;;;;;;;;;5082049;28;20062;-82
2021/11/09 02:03:58;;;;;;;24.50;13.00;;;;;;;;;;5082125;28;20045;-83
2021/11/09 02:06:27;;;;;;;23.75;12.60;;;;;;;;;;5080101;28;20131;-83
2021/11/09 02:09:01;;;;;;;25.90;12.80;;;;;;;;;;5079572;28;20044;-82
2021/11/09 02:11:31;;;;;;;28.50;12.90;;;;;;;;;;5081213;28;20048;-82
2021/11/09 02:13:59;;;;;;;28.50;13.65;;;;;;;;;;5081262;28;20530;-83
2021/11/09 02:16:27;;;;;;;25.80;12.85;;;;;;;;;;5080492;28;20487;-83
2021/11/09 02:18:57;;;;;;;23.85;12.23;;;;;;;;;;5081171;28;20064;-82
2021/11/09 02:21:26;;;;;;;28.08;13.18;;;;;;;;;;5081206;28;20051;-83
2021/11/09 02:23:53;;;;;;;31.05;13.05;;;;;;;;;;5080194;28;20457;-83
2021/11/09 02:26:22;;;;;;;27.92;13.57;;;;;;;;;;5080461;28;20041;-84
2021/11/09 02:28:56;;;;;;;36.25;13.93;;;;;;;;;;5081134;28;20044;-83
2021/11/09 02:31:23;;;;;;;25.85;12.48;;;;;;;;;;5081523;28;20067;-82
2021/11/09 02:33:51;;;;;;;25.50;12.60;;;;;;;;;;5081394;28;20053;-83
2021/11/09 02:36:18;;;;;;;23.42;12.82;;;;;;;;;;5081138;28;20052;-83
2021/11/09 02:38:49;;;;;;;25.90;13.98;;;;;;;;;;5082116;28;20051;-83
2021/11/09 02:41:18;;;;;;;24.65;12.85;;;;;;;;;;5080694;28;20414;-83
2021/11/09 02:43:45;;;;;;;26.35;12.43;;;;;;;;;;5077442;28;20049;-84
2021/11/09 02:46:32;;;;;;;27.00;12.75;;;;;;;;;;5075996;28;20070;-84
2021/11/09 02:49:08;;;;;;;26.98;11.50;;;;;;;;;;5077243;28;20135;-85
2021/11/09 02:51:37;;;;;;;32.03;14.80;;;;;;;;;;5075957;28;20068;-84
2021/11/09 02:54:11;;;;;;;25.38;12.48;;;;;;;;;;5076299;28;20049;-84
2021/11/09 02:56:43;;;;;;;28.40;13.70;;;;;;;;;;5075867;28;20125;-84
2021/11/09 02:59:22;;;;;;;26.90;11.73;;;;;;;;;;5075934;28;20045;-84
2021/11/09 03:01:53;;;;;;;30.77;13.65;;;;;;;;;;5076434;28;20056;-84
2021/11/09 03:04:30;;;;;;;29.50;13.48;;;;;;;;;;5076727;28;20511;-83
2021/11/09 03:07:01;;;;;;;23.95;12.95;;;;;;;;;;5076350;28;20045;-84
2021/11/09 03:09:40;;;;;;;25.95;12.60;;;;;;;;;;5077180;28;20057;-84
2021/11/09 03:12:10;;;;;;;29.92;13.45;;;;;;;;;;5076804;28;20105;-83
2021/11/09 03:14:40;;;;;;;27.55;13.90;;;;;;;;;;5076410;28;20048;-82
2021/11/09 03:17:15;;;;;;;30.92;13.93;;;;;;;;;;5076726;28;20135;-83
2021/11/09 03:19:45;;;;;;;27.08;13.88;;;;;;;;;;5077995;28;20152;-83
2021/11/09 03:44:26;;;;;;;22.40;12.73;;;;;;;;;;5052884;28;20130;-83
2021/11/09 03:46:58;;;;;;;24.80;14.02;;;;;;;;;;5079209;28;20094;-83
2021/11/09 03:49:27;;;;;;;25.13;12.55;;;;;;;;;;5079406;28;20052;-84
2021/11/09 03:51:58;;;;;;;23.35;12.95;;;;;;;;;;5079560;28;20131;-84
2021/11/09 03:54:29;;;;;;;24.33;12.82;;;;;;;;;;5079899;28;20127;-84
2021/11/09 03:57:03;;;;;;;25.45;13.20;;;;;;;;;;5079577;28;20672;-85
2021/11/09 03:59:49;;;;;;;33.13;14.23;;;;;;;;;;5087195;28;20106;-84
2021/11/09 04:02:22;;;;;;;28.27;13.93;;;;;;;;;;5083229;28;20044;-82
2021/11/09 04:04:51;;;;;;;26.27;13.55;;;;;;;;;;5079069;28;20059;-84
2021/11/09 04:07:26;;;;;;;26.33;13.32;;;;;;;;;;5079766;28;20055;-83
2021/11/09 04:10:11;;;;;;;29.58;14.85;;;;;;;;;;5078766;28;20056;-84
2021/11/09 04:12:51;;;;;;;23.80;14.20;;;;;;;;;;5078359;28;20048;-82
2021/11/09 04:15:31;;;;;;;25.55;12.20;;;;;;;;;;5078450;28;20144;-84
2021/11/09 04:18:09;;;;;;;27.80;12.75;;;;;;;;;;5078240;28;20049;-84
2021/11/09 04:20:44;;;;;;;23.95;12.20;;;;;;;;;;5078400;28;20060;-84
2021/11/09 04:26:25;;;;;;;26.52;12.88;;;;;;;;;;5078391;28;20098;-84
2021/11/09 05:02:53;;;;;;;31.42;13.82;;;;;;;;;;5033150;28;20110;-82
2021/11/09 05:10:56;;;;;;;29.65;14.05;;;;;;;;;;5097150;28;20043;-82
2021/11/09 05:13:23;;;;;;;30.58;13.73;;;;;;;;;;5095830;28;20052;-82
2021/11/09 05:15:50;;;;;;;29.30;15.35;;;;;;;;;;5091540;28;20056;-83
2021/11/09 05:18:19;;;;;;;34.22;14.80;;;;;;;;;;5079534;28;20052;-82
2021/11/09 05:20:47;;;;;;;30.20;14.00;;;;;;;;;;5080968;28;20053;-83
2021/11/09 05:23:14;;;;;;;27.38;14.68;;;;;;;;;;5078926;28;20044;-83
2021/11/09 05:25:41;;;;;;;30.00;15.00;;;;;;;;;;5078657;28;20542;-82
2021/11/09 05:28:09;;;;;;;30.48;14.90;;;;;;;;;;5078122;28;20495;-82
2021/11/09 05:30:38;;;;;;;32.20;15.35;;;;;;;;;;5078751;28;20057;-83
2021/11/09 05:33:06;;;;;;;30.52;14.50;;;;;;;;;;5078473;28;20049;-83
2021/11/09 05:35:35;;;;;;;32.60;14.95;;;;;;;;;;5077215;28;20052;-83
2021/11/09 05:38:04;;;;;;;30.02;13.82;;;;;;;;;;5078220;28;20049;-83
2021/11/09 05:40:34;;;;;;;22.42;13.10;;;;;;;;;;5078062;28;20054;-84
2021/11/09 05:43:01;;;;;;;29.45;14.10;;;;;;;;;;5077290;28;20461;-85
2021/11/09 05:45:32;;;;;;;28.98;13.48;;;;;;;;;;5077466;28;20051;-84
2021/11/09 05:47:59;;;;;;;23.98;12.38;;;;;;;;;;5077207;28;20131;-83
2021/11/09 05:50:27;;;;;;;25.67;11.93;;;;;;;;;;5077914;28;20544;-83
2021/11/09 05:52:58;;;;;;;24.90;12.07;;;;;;;;;;5075184;28;20408;-82
2021/11/09 05:55:25;;;;;;;34.15;14.35;;;;;;;;;;5074511;28;20053;-84
2021/11/09 05:57:52;;;;;;;23.98;11.40;;;;;;;;;;5075161;28;20044;-82
2021/11/09 06:00:19;;;;;;;26.88;12.23;;;;;;;;;;5076060;28;20054;-84
2021/11/09 06:02:45;;;;;;;24.90;12.20;;;;;;;;;;5074669;28;20045;-82
2021/11/09 06:05:13;;;;;;;24.48;11.52;;;;;;;;;;5074557;28;20067;-83
2021/11/09 06:07:40;;;;;;;23.95;10.68;;;;;;;;;;5074967;28;20045;-82
2021/11/09 06:10:10;;;;;;;25.27;10.90;;;;;;;;;;5075153;28;20048;-82
2021/11/09 06:12:38;;;;;;;27.15;11.82;;;;;;;;;;5075395;28;20052;-83
2021/11/09 06:15:06;;;;;;;25.90;11.50;;;;;;;;;;5074665;28;20067;-84
2021/11/09 06:17:33;;;;;;;23.77;10.98;;;;;;;;;;5074830;28;20052;-84
2021/11/09 06:20:33;;;;;;;24.23;12.43;;;;;;;;;;5080545;28;20116;-84
2021/11/09 06:23:01;;;;;;;28.08;12.02;;;;;;;;;;5033627;28;20099;-82
2021/11/09 06:25:29;;;;;;;27.88;13.20;;;;;;;;;;5065483;28;20044;-82
2021/11/09 06:27:57;;;;;;;27.60;12.05;;;;;;;;;;5074771;28;20514;-83
2021/11/09 06:30:24;;;;;;;24.67;12.38;;;;;;;;;;5075346;28;20450;-82
2021/11/09 06:32:52;;;;;;;29.05;12.18;;;;;;;;;;5075349;28;20053;-82
2021/11/09 06:35:19;;;;;;;32.28;14.30;;;;;;;;;;5109527;22;20050;-65
2021/11/09 06:37:46;;;;;;;28.38;13.18;;;;;;;;;;5071143;28;20063;-64
2021/11/09 06:40:13;;;;;;;28.77;12.88;;;;;;;;;;5072454;28;20049;-65
2021/11/09 06:42:42;;;;;;;29.90;13.20;;;;;;;;;;5072285;28;20051;-65
2021/11/09 06:45:09;;;;;;;30.05;13.02;;;;;;;;;;5072126;28;20053;-65
2021/11/09 06:47:37;;;;;;;28.75;12.27;;;;;;;;;;5074589;28;20052;-63
2021/11/09 06:50:06;;;;;;;31.83;14.07;;;;;;;;;;5072251;28;20114;-63
2021/11/09 06:52:33;;;;;;;28.27;13.50;;;;;;;;;;5072464;28;20099;-63
2021/11/09 06:55:01;;;;;;;27.35;13.02;;;;;;;;;;5071625;28;20059;-63
2021/11/09 06:57:29;;;;;;;33.05;13.50;;;;;;;;;;5072065;28;20060;-63
2021/11/09 06:59:57;;;;;;;29.60;13.45;;;;;;;;;;5072546;28;20489;-63
2021/11/09 07:02:26;;;;;;;37.80;14.75;;;;;;;;;;5072075;28;20059;-62
2021/11/09 07:04:54;;;;;;;28.27;13.15;;;;;;;;;;5071957;28;20041;-63
2021/11/09 07:07:21;;;;;;;29.73;12.93;;;;;;;;;;5072340;28;20048;-63
2021/11/09 07:09:49;;;;;;;31.75;14.43;;;;;;;;;;5073240;28;20055;-63
2021/11/09 07:12:16;;;;;;;31.60;14.07;;;;;;;;;;5072965;28;20417;-62
2021/11/09 07:14:43;;;;;;;36.13;14.43;;;;;;;;;;5072267;28;20095;-62
2021/11/09 07:17:12;;;;;;;31.58;14.57;;;;;;;;;;5072524;28;20561;-62
2021/11/09 07:19:40;;;;;;;30.63;13.45;;;;;;;;;;5072147;28;20064;-63
2021/11/09 07:22:07;;;;;;;33.63;14.25;;;;;;;;;;5072723;28;20118;-63
2021/11/09 07:24:34;;;;;;;31.80;15.10;;;;;;;;;;5072535;28;20489;-63
2021/11/09 07:27:02;;;;;;;33.22;15.13;;;;;;;;;;5072403;28;20063;-63
2021/11/09 07:29:29;;;;;;;34.55;14.70;;;;;;;;;;5072368;28;20048;-62
2021/11/09 07:31:56;;;;;;;31.48;14.35;;;;;;;;;;5072045;28;20490;-62
2021/11/09 07:34:25;;;;;;;36.00;15.45;;;;;;;;;;5071904;28;20063;-62
2021/11/09 07:36:53;;;;;;;31.15;14.30;;;;;;;;;;5071898;28;20052;-62
2021/11/09 07:39:20;;;;;;;38.58;16.30;;;;;;;;;;5072693;28;20398;-63
2021/11/09 07:41:51;;;;;;;33.88;15.25;;;;;;;;;;5072527;28;20267;-63
2021/11/09 07:44:18;;;;;;;32.42;13.88;;;;;;;;;;5072579;28;20054;-63
2021/11/09 07:46:46;;;;;;;31.63;14.07;;;;;;;;;;5073091;28;20049;-63
2021/11/09 07:49:13;;;;;;;28.33;14.25;;;;;;;;;;5073306;28;20494;-62
2021/11/09 07:51:42;;;;;;;28.30;14.38;;;;;;;;;;5072858;28;20079;-63
2021/11/09 07:54:10;;;;;;;32.42;14.32;;;;;;;;;;5072774;28;20086;-62
2021/11/09 07:56:40;;;;;;;31.90;15.35;;;;;;;;;;5071054;28;20045;-64
2021/11/09 07:59:28;;;;;;;33.70;17.02;;;;;;;;;;5072315;28;20548;-64
2021/11/09 08:02:05;;;;;;;42.92;18.08;;;;;;;;;;5051309;28;20048;-63
2021/11/09 08:04:38;;;;;;;31.45;16.38;;;;;;;;;;5052340;28;20581;-64
2021/11/09 08:07:11;;;;;;;39.88;17.40;;;;;;;;;;5056495;28;20083;-64
2021/11/09 08:09:39;;;;;;;35.53;15.48;;;;;;;;;;5069848;28;20056;-63
2021/11/09 08:12:07;;;;;;;31.85;15.65;;;;;;;;;;5069494;28;20097;-63
2021/11/09 08:14:34;;;;;;;34.78;16.13;;;;;;;;;;5070005;28;20044;-63
2021/11/09 08:17:02;;;;;;;31.98;14.95;;;;;;;;;;5070051;28;20123;-63
2021/11/09 08:19:30;;;;;;;35.33;14.95;;;;;;;;;;5070691;28;20052;-63
2021/11/09 08:21:58;;;;;;;36.13;14.88;;;;;;;;;;5070418;28;20143;-64
2021/11/09 08:24:28;;;;;;;32.20;15.40;;;;;;;;;;5069778;28;20044;-63
2021/11/09 08:26:57;;;;;;;30.20;14.40;;;;;;;;;;5070151;28;20076;-65
2021/11/09 08:29:25;;;;;;;32.63;15.43;;;;;;;;;;5070234;28;20432;-68
2021/11/09 08:31:54;;;;;;;33.67;14.43;;;;;;;;;;5070607;28;20469;-68
2021/11/09 08:34:22;;;;;;;30.65;15.05;;;;;;;;;;5070204;28;20051;-77
2021/11/09 08:36:50;;;;;;;31.38;14.68;;;;;;;;;;5068308;28;20044;-68
2021/11/09 08:39:22;;;;;;;38.00;16.40;;;;;;;;;;5069823;28;20059;-64
2021/11/09 08:41:57;;;;;;;32.65;15.70;;;;;;;;;;5068862;28;20099;-65
2021/11/09 08:44:27;;;;;;;35.42;15.63;;;;;;;;;;5069613;28;20044;-65
2021/11/09 08:46:55;;;;;;;27.80;15.25;;;;;;;;;;5069114;28;20053;-64
2021/11/09 08:49:25;;;;;;;36.28;15.18;;;;;;;;;;5069159;28;20670;-65
2021/11/09 08:51:54;;;;;;;33.15;14.85;;;;;;;;;;5069246;28;20045;-66
2021/11/09 08:54:25;;;;;;;35.78;15.85;;;;;;;;;;5072893;28;20054;-65
2021/11/09 08:57:10;;;;;;;36.38;16.17;;;;;;;;;;5073021;28;20151;-65
2021/11/09 09:05:09;;;;;;;36.72;18.33;;;;;;;;;;5068982;28;20583;-66
2021/11/09 09:07:37;;;;;;;28.15;13.95;;;;;;;;;;5068845;28;20076;-68
2021/11/09 09:10:06;;;;;;;29.13;15.20;;;;;;;;;;5069618;28;20401;-68
2021/11/09 09:12:37;;;;;;;32.15;14.70;;;;;;;;;;5069157;28;20432;-67
2021/11/09 09:15:06;;;;;;;35.50;15.60;;;;;;;;;;5068324;28;20068;-67
2021/11/09 09:17:34;;;;;;;38.78;16.13;;;;;;;;;;5068026;28;20048;-65
2021/11/09 09:20:07;;;;;;;29.73;14.32;;;;;;;;;;5067298;28;20382;-65
2021/11/09 09:22:39;;;;;;;38.95;18.02;;;;;;;;;;5067908;28;20052;-63
2021/11/09 09:25:17;;;;;;;28.80;14.77;;;;;;;;;;5066416;28;20056;-65
2021/11/09 09:28:09;;;;;;;29.40;14.90;;;;;;;;;;5067955;28;20048;-64
2021/11/09 09:33:30;;;;;;;;;;;;;;;;;;5065229;28;20261;-64
2021/11/09 09:55:21;;;;;;;30.90;13.35;;;;;;;;;;5060935;28;20060;-65
2021/11/09 09:57:48;;;;;;;27.80;15.02;;;;;;;;;;5066961;28;20512;-65
2021/11/09 10:00:17;;;;;;;31.02;14.65;;;;;;;;;;5066815;28;20058;-64
2021/11/09 10:02:50;;;;;;;29.85;14.60;;;;;;;;;;5066795;28;20062;-65
2021/11/09 10:05:18;;;;;;;31.42;14.32;;;;;;;;;;5066680;28;20396;-64
2021/11/09 10:07:50;;;;;;;36.67;15.80;;;;;;;;;;5067359;28;20044;-64
2021/11/09 10:10:19;;;;;;;40.50;16.95;;;;;;;;;;5066169;28;20270;-65
2021/11/09 10:12:47;;;;;;;32.75;14.05;;;;;;;;;;5067856;28;20064;-64
2021/11/09 10:15:19;;;;;;;32.75;14.20;;;;;;;;;;5066846;28;20052;-64
2021/11/09 10:17:49;;;;;;;27.05;12.40;;;;;;;;;;5066806;28;20144;-65
2021/11/09 10:20:19;;;;;;;25.17;11.27;;;;;;;;;;5066760;28;20130;-64
2021/11/09 10:22:50;;;;;;;23.27;10.63;;;;;;;;;;5065946;28;20087;-65
2021/11/09 10:25:18;;;;;;;;;;;;;;;;;;5066734;28;20062;-65
2021/11/09 10:27:48;;;;;;;25.33;9.07;;;;;;;;;;5066596;28;19964;-65
2021/11/09 10:30:20;;;;;;;23.25;10.50;;;;;;;;;;5066805;28;20517;-64
2021/11/09 10:32:47;;;;;;;19.15;9.32;;;;;;;;;;5066872;28;20064;-65
2021/11/09 10:35:16;;;;;;;27.50;11.25;;;;;;;;;;5066078;28;20405;-65
2021/11/09 10:37:47;;;;;;;22.02;11.25;;;;;;;;;;5065537;28;20059;-64
2021/11/09 10:40:17;;;;;;;26.48;12.65;;;;;;;;;;5066618;28;20076;-65
2021/11/09 10:42:46;;;;;;;24.65;10.95;;;;;;;;;;5065314;28;20057;-65
2021/11/09 10:45:16;;;;;;;24.38;9.88;;;;;;;;;;5065950;28;20048;-64
2021/11/09 10:47:46;;;;;;;19.90;9.30;;;;;;;;;;5066921;28;20417;-64
2021/11/09 10:50:19;;;;;;;21.65;9.65;;;;;;;;;;5066152;28;20044;-67
2021/11/09 10:52:46;;;;;;;27.42;8.95;;;;;;;;;;5065909;28;20049;-65
2021/11/09 10:55:17;;;;;;;19.85;8.73;;;;;;;;;;5066670;28;20084;-65
2021/11/09 10:57:55;;;;;;;22.50;9.50;;;;;;;;;;5065930;28;20095;-64
2021/11/09 11:03:38;;;;;;;22.63;8.63;;;;;;;;;;5066208;28;20063;-64
2021/11/09 11:06:13;;;;;;;23.35;9.55;;;;;;;;;;5066108;28;20059;-64
2021/11/09 11:08:40;;;;;;;22.48;8.05;;;;;;;;;;5065993;28;20052;-64
2021/11/09 11:11:21;;;;;;;23.17;9.20;;;;;;;;;;5065939;28;20490;-64
2021/11/09 11:13:50;;;;;;;19.15;8.15;;;;;;;;;;5065804;28;20048;-64
2021/11/09 11:16:19;;;;;;;19.30;9.10;;;;;;;;;;5065587;28;20056;-64
2021/11/09 11:18:51;;;;;;;22.85;8.55;;;;;;;;;;5066474;28;20045;-64
2021/11/09 11:21:20;;;;;;;21.45;8.77;;;;;;;;;;5065773;28;20127;-64
2021/11/09 11:23:48;;;;;;;21.85;8.15;;;;;;;;;;5065702;28;20515;-64
2021/11/09 11:26:16;;;;;;;20.77;8.38;;;;;;;;;;5066052;28;20088;-64
2021/11/09 11:28:46;;;;;;;21.25;9.15;;;;;;;;;;5066923;28;20480;-64
2021/11/09 11:31:14;;;;;;;20.40;8.10;;;;;;;;;;5066907;28;20478;-64
2021/11/09 11:33:42;;;;;;;17.67;8.57;;;;;;;;;;5065876;28;20044;-64
2021/11/09 11:36:11;;;;;;;22.40;9.93;;;;;;;;;;5064800;28;20532;-66
2021/11/09 11:38:44;;;;;;;23.65;11.20;;;;;;;;;;5066110;28;20041;-65
2021/11/09 11:41:12;;;;;;;22.77;9.77;;;;;;;;;;5067132;28;20047;-73
2021/11/09 11:44:03;;;;;;;23.77;10.82;;;;;;;;;;5070987;28;20542;-70
2021/11/09 11:46:52;;;;;;;22.38;10.02;;;;;;;;;;5070055;28;20489;-66
2021/11/09 11:49:31;;;;;;;24.75;9.18;;;;;;;;;;5069752;28;20412;-67
2021/11/09 11:52:07;;;;;;;246.88;55.15;;;;;;;;;;5070401;28;20118;-67
2021/11/09 11:54:41;;;;;;;236.43;69.13;;;;;;;;;;5069751;28;20052;-70
2021/11/09 11:57:09;;;;;;;26.05;10.80;;;;;;;;;;5069860;28;20164;-64
2021/11/09 11:59:41;;;;;;;31.00;11.10;;;;;;;;;;5069519;28;20048;-64
2021/11/09 12:02:10;;;;;;;25.13;10.32;;;;;;;;;;5069030;28;20059;-63
2021/11/09 12:04:52;;;;;;;26.73;11.80;;;;;;;;;;5069335;28;20104;-64
2021/11/09 12:07:22;;;;;;;29.58;12.20;;;;;;;;;;5068903;28;20052;-65
2021/11/09 12:09:52;;;;;;;27.83;14.13;;;;;;;;;;5069086;28;20410;-65
2021/11/09 12:12:32;;;;;;;30.30;11.98;;;;;;;;;;5068541;28;20044;-64
2021/11/09 12:15:01;;;;;;;24.13;10.63;;;;;;;;;;5069927;28;20497;-73
2021/11/09 12:17:34;;;;;;;58.03;20.17;;;;;;;;;;5069943;28;20425;-71
2021/11/09 12:20:05;;;;;;;41.58;15.15;;;;;;;;;;5069222;28;20056;-62
2021/11/09 12:22:45;;;;;;;28.50;13.15;;;;;;;;;;5069158;28;20052;-62
2021/11/09 12:25:15;;;;;;;42.10;15.23;;;;;;;;;;5069551;28;20515;-62
2021/11/09 12:28:04;;;;;;;31.83;13.65;;;;;;;;;;5068982;28;20063;-64
2021/11/09 12:30:54;;;;;;;39.17;14.88;;;;;;;;;;5068799;28;20052;-61
2021/11/09 12:33:22;;;;;;;29.52;12.40;;;;;;;;;;5068547;28;20135;-63
2021/11/09 12:35:52;;;;;;;26.40;13.15;;;;;;;;;;5068976;28;20072;-62
2021/11/09 12:38:22;;;;;;;30.33;12.73;;;;;;;;;;5069310;28;20313;-63
2021/11/09 12:40:57;;;;;;;27.17;13.00;;;;;;;;;;5069079;28;20139;-64
2021/11/09 12:43:43;;;;;;;32.35;13.50;;;;;;;;;;5068529;28;20561;-62
2021/11/09 12:46:15;;;;;;;30.77;13.20;;;;;;;;;;5085579;22;20749;-79
2021/11/09 12:48:49;;;;;;;26.30;11.90;;;;;;;;;;5065633;28;20415;-79
2021/11/09 12:51:19;;;;;;;33.60;13.75;;;;;;;;;;5066507;28;20053;-79
2021/11/09 12:53:49;;;;;;;71.95;22.67;;;;;;;;;;5064217;28;20076;-78
2021/11/09 12:56:22;;;;;;;31.27;13.40;;;;;;;;;;5066798;28;20510;-80
2021/11/09 12:58:54;;;;;;;37.63;15.15;;;;;;;;;;5070574;28;20056;-79
2021/11/09 13:01:27;;;;;;;26.38;13.30;;;;;;;;;;5071635;28;20123;-80
2021/11/09 13:06:56;;;;;;;34.25;15.98;;;;;;;;;;5018720;28;20063;-80
2021/11/09 13:09:27;;;;;;;27.23;12.95;;;;;;;;;;5071867;28;20521;-78
2021/11/09 13:11:59;;;;;;;33.95;15.60;;;;;;;;;;5070545;28;20036;-80
2021/11/09 13:14:34;;;;;;;33.25;14.07;;;;;;;;;;5071374;28;20171;-79
2021/11/09 13:17:01;;;;;;;28.45;13.82;;;;;;;;;;5069311;28;20797;-78
2021/11/09 13:19:37;;;;;;;25.60;12.43;;;;;;;;;;5068482;28;20083;-78
2021/11/09 13:22:09;;;;;;;30.70;13.55;;;;;;;;;;5069134;28;20074;-79
2021/11/09 13:24:39;;;;;;;39.50;13.60;;;;;;;;;;5070468;28;20041;-78
2021/11/09 13:27:07;;;;;;;;;;;;;;;;;;5071447;28;20131;-79
2021/11/09 13:29:47;;;;;;;37.70;14.93;;;;;;;;;;5071344;28;20382;-79
2021/11/09 13:32:15;;;;;;;28.13;12.27;;;;;;;;;;5071529;28;20646;-79
2021/11/09 13:34:42;;;;;;;25.02;11.98;;;;;;;;;;5070274;28;20564;-80
2021/11/09 13:37:11;;;;;;;22.38;10.80;;;;;;;;;;5070660;28;20041;-79
2021/11/09 13:39:39;;;;;;;45.90;16.08;;;;;;;;;;5071248;28;20098;-79
2021/11/09 13:42:07;;;;;;;67.38;22.73;;;;;;;;;;5070502;28;20071;-80
2021/11/09 13:44:35;;;;;;;43.58;18.80;;;;;;;;;;5070571;28;20131;-80
2021/11/09 13:47:02;;;;;;;54.05;18.55;;;;;;;;;;5070895;28;20049;-79
2021/11/09 13:49:29;;;;;;;22.80;11.88;;;;;;;;;;5071318;28;20048;-80
2021/11/09 13:51:59;;;;;;;25.05;11.65;;;;;;;;;;5070934;28;20502;-86
2021/11/09 13:54:31;;;;;;;23.58;11.73;;;;;;;;;;5081598;28;20048;-85
2021/11/09 13:57:01;;;;;;;28.30;14.05;;;;;;;;;;5072262;28;20135;-81
2021/11/09 13:59:31;;;;;;;21.90;10.65;;;;;;;;;;5071494;28;20075;-80
2021/11/09 14:02:02;;;;;;;27.30;11.05;;;;;;;;;;5072457;28;20041;-88
2021/11/09 14:04:52;;;;;;;24.83;11.60;;;;;;;;;;5079204;28;20127;-78
2021/11/09 14:10:49;;;;;;;21.88;10.05;;;;;;;;;;5070318;28;20063;-79
2021/11/09 14:13:30;;;;;;;25.13;12.27;;;;;;;;;;5070461;28;20541;-79
2021/11/09 14:16:19;;;;;;;29.42;13.18;;;;;;;;;;5072363;28;20056;-79
2021/11/09 14:18:50;;;;;;;23.52;11.98;;;;;;;;;;5072361;28;20131;-79
2021/11/09 14:21:17;;;;;;;26.92;12.05;;;;;;;;;;5070095;28;20044;-80
2021/11/09 14:23:44;;;;;;;24.80;12.02;;;;;;;;;;5070414;28;20066;-79
2021/11/09 14:26:20;;;;;;;21.08;11.15;;;;;;;;;;5070123;28;20613;-81
2021/11/09 14:28:48;;;;;;;26.40;11.68;;;;;;;;;;5069698;28;20056;-78
2021/11/09 14:31:18;;;;;;;26.55;12.27;;;;;;;;;;5066906;28;20052;-78
2021/11/09 14:33:48;;;;;;;24.08;11.02;;;;;;;;;;5069505;28;20041;-79
2021/11/09 14:36:28;;;;;;;21.70;11.27;;;;;;;;;;5068008;28;20048;-80
2021/11/09 14:39:15;;;;;;;23.45;11.38;;;;;;;;;;5068788;28;20102;-79
2021/11/09 14:42:12;;;;;;;21.48;10.38;;;;;;;;;;5070774;28;20131;-80
2021/11/09 14:45:14;;;;;;;26.08;11.13;;;;;;;;;;5069089;28;20117;-79
2021/11/09 14:47:45;;;;;;;22.40;10.70;;;;;;;;;;5069986;28;20036;-80
2021/11/09 14:50:19;;;;;;;23.98;11.27;;;;;;;;;;5070691;28;20040;-79
2021/11/09 14:52:45;;;;;;;22.77;10.63;;;;;;;;;;5069479;28;20095;-81
2021/11/09 14:55:23;;;;;;;24.83;10.60;;;;;;;;;;5070003;28;20041;-81
2021/11/09 14:57:51;;;;;;;23.98;11.43;;;;;;;;;;5080419;28;20048;-79
2021/11/09 15:00:19;;;;;;;18.45;9.65;;;;;;;;;;5076383;28;20044;-78
2021/11/09 15:02:46;;;;;;;19.65;9.00;;;;;;;;;;5077390;28;20059;-79
2021/11/09 15:05:22;;;;;;;20.23;10.07;;;;;;;;;;5071555;28;20112;-78
2021/11/09 15:08:07;;;;;;;21.48;9.90;;;;;;;;;;5070187;28;20432;-79
2021/11/09 15:10:51;;;;;;;24.80;10.88;;;;;;;;;;5067982;28;20452;-79
2021/11/09 15:13:44;;;;;;;23.17;11.68;;;;;;;;;;5069786;28;20056;-79
2021/11/09 15:30:02;;;;;;;19.98;9.10;;;;;;;;;;5059117;28;20051;-79
2021/11/09 15:32:34;;;;;;;19.50;8.77;;;;;;;;;;5069592;28;20697;-79
2021/11/09 15:35:13;;;;;;;18.40;9.07;;;;;;;;;;5069643;28;20044;-79
2021/11/09 15:37:42;;;;;;;17.10;9.13;;;;;;;;;;5069006;28;20044;-79
2021/11/09 15:40:12;;;;;;;23.70;9.65;;;;;;;;;;5069655;28;20057;-78
2021/11/09 15:42:39;;;;;;;26.42;10.95;;;;;;;;;;5070187;28;20045;-80
2021/11/09 15:45:07;;;;;;;21.40;9.15;;;;;;;;;;5069743;28;20048;-79
2021/11/09 15:47:36;;;;;;;23.40;9.50;;;;;;;;;;5069163;28;20438;-80
2021/11/09 15:50:05;;;;;;;20.73;8.98;;;;;;;;;;5069477;28;20048;-79
2021/11/09 15:52:32;;;;;;;19.40;9.35;;;;;;;;;;5069785;28;20044;-79
2021/11/09 15:55:00;;;;;;;16.27;8.40;;;;;;;;;;5069121;28;20050;-79
2021/11/09 15:57:27;;;;;;;19.70;8.95;;;;;;;;;;5069501;28;20049;-79
2021/11/09 15:59:55;;;;;;;19.48;9.02;;;;;;;;;;5069594;28;20040;-79
2021/11/09 16:02:23;;;;;;;22.13;10.63;;;;;;;;;;5069050;28;20082;-79
2021/11/09 16:04:53;;;;;;;21.02;10.43;;;;;;;;;;5068931;28;20044;-79
2021/11/09 16:07:22;;;;;;;27.90;11.38;;;;;;;;;;5069215;28;20044;-78
2021/11/09 16:09:52;;;;;;;18.60;8.50;;;;;;;;;;5067775;28;20275;-80
2021/11/09 16:12:20;;;;;;;15.55;7.85;;;;;;;;;;5069058;28;20049;-80
2021/11/09 16:14:48;;;;;;;17.38;7.70;;;;;;;;;;5067996;28;20746;-80
2021/11/09 16:17:15;;;;;;;19.48;8.00;;;;;;;;;;5067924;28;20090;-80
2021/11/09 16:19:43;;;;;;;16.40;7.70;;;;;;;;;;5069234;28;20078;-79
2021/11/09 16:22:13;;;;;;;15.93;7.60;;;;;;;;;;5069310;28;20066;-80
2021/11/09 16:24:40;;;;;;;18.67;8.02;;;;;;;;;;5067815;28;20056;-79
2021/11/09 16:27:07;;;;;;;14.68;7.10;;;;;;;;;;5068290;28;20047;-79
2021/11/09 16:30:14;;;;;;;15.50;8.13;;;;;;;;;;5071929;28;20048;-79
2021/11/09 16:32:44;;;;;;;15.95;7.10;;;;;;;;;;5071889;28;20041;-80
2021/11/09 16:35:18;;;;;;;15.82;7.45;;;;;;;;;;5071633;28;20044;-79
2021/11/09 16:37:46;;;;;;;17.25;7.70;;;;;;;;;;5071869;28;20487;-80